EJU51MA LFPG-LEPA
Flight info
| Callsign | EJU51MA |
|---|---|
| Flight time | N/A |
| Altitude | 35000 |
| Route | ERIXU/N0416F370 DCT ETAMO DCT VALKU DCT ATSUP DCT MINSO DCT DEGOL DCT PPG DCT ALBER DCT GIR DCT NENDA DCT KUREG DCT LORES |
| Aircraft | A20N/M-SDE2E3FGHIJ1RWXYZ/LB1G1 |
Departure
| Time | 2026-05-08 17:08 |
|---|---|
| Airport | Charles de Gaulle International Airport (LFPG) |
Arrival
| Time | N/A |
|---|---|
| Airport | Palma de Mallorca Airport (LEPA) |
| Time | Latitude | Longitude | Altitude | Speed | Heading |
|---|---|---|---|---|---|
| 2026-05-08 16:17 | 49.00562 | 2.56737 | 353 ft | 0 kts | 177° |
| 2026-05-08 16:52 | 49.00578 | 2.56735 | 360 ft | 2 kts | 178° |
| 2026-05-08 16:52 | 49.00588 | 2.56735 | 357 ft | 2 kts | 176° |
| 2026-05-08 16:53 | 49.00607 | 2.56736 | 359 ft | 3 kts | 192° |
| 2026-05-08 16:53 | 49.00621 | 2.56746 | 363 ft | 2 kts | 245° |
| 2026-05-08 16:53 | 49.00624 | 2.56766 | 362 ft | 2 kts | 268° |
| 2026-05-08 16:54 | 49.00625 | 2.56772 | 361 ft | 0 kts | 267° |
| 2026-05-08 16:56 | 49.00625 | 2.56768 | 362 ft | 1 kts | 267° |
| 2026-05-08 16:56 | 49.00624 | 2.56734 | 362 ft | 5 kts | 266° |
| 2026-05-08 16:56 | 49.00622 | 2.56693 | 360 ft | 7 kts | 266° |
| 2026-05-08 16:57 | 49.00616 | 2.56591 | 353 ft | 11 kts | 264° |
| 2026-05-08 16:57 | 49.00611 | 2.56507 | 353 ft | 13 kts | 265° |
| 2026-05-08 16:57 | 49.00605 | 2.56397 | 356 ft | 14 kts | 266° |
| 2026-05-08 16:57 | 49.00598 | 2.56247 | 353 ft | 14 kts | 265° |
| 2026-05-08 16:58 | 49.00591 | 2.56142 | 362 ft | 13 kts | 265° |
| 2026-05-08 16:58 | 49.00582 | 2.56061 | 357 ft | 12 kts | 255° |
| 2026-05-08 16:58 | 49.00565 | 2.55948 | 355 ft | 11 kts | 267° |
| 2026-05-08 16:58 | 49.00565 | 2.55863 | 360 ft | 11 kts | 271° |
| 2026-05-08 16:59 | 49.00566 | 2.55783 | 360 ft | 10 kts | 269° |
| 2026-05-08 16:59 | 49.00563 | 2.55714 | 361 ft | 9 kts | 266° |
| 2026-05-08 16:59 | 49.00560 | 2.55638 | 359 ft | 9 kts | 266° |
| 2026-05-08 16:59 | 49.00551 | 2.55560 | 357 ft | 8 kts | 248° |
| 2026-05-08 17:00 | 49.00523 | 2.55503 | 359 ft | 9 kts | 220° |
| 2026-05-08 17:00 | 49.00474 | 2.55471 | 353 ft | 11 kts | 189° |
| 2026-05-08 17:00 | 49.00397 | 2.55493 | 355 ft | 13 kts | 165° |
| 2026-05-08 17:00 | 49.00333 | 2.55520 | 355 ft | 14 kts | 164° |
| 2026-05-08 17:01 | 49.00276 | 2.55544 | 361 ft | 15 kts | 165° |
| 2026-05-08 17:01 | 49.00206 | 2.55572 | 355 ft | 14 kts | 165° |
| 2026-05-08 17:01 | 49.00132 | 2.55604 | 360 ft | 13 kts | 163° |
| 2026-05-08 17:01 | 49.00072 | 2.55632 | 356 ft | 12 kts | 163° |
| 2026-05-08 17:02 | 49.00009 | 2.55661 | 357 ft | 11 kts | 163° |
| 2026-05-08 17:02 | 48.99949 | 2.55702 | 360 ft | 9 kts | 140° |
| 2026-05-08 17:02 | 48.99911 | 2.55779 | 357 ft | 8 kts | 139° |
| 2026-05-08 17:02 | 48.99875 | 2.55799 | 359 ft | 9 kts | 170° |
| 2026-05-08 17:03 | 48.99801 | 2.55803 | 355 ft | 12 kts | 179° |
| 2026-05-08 17:03 | 48.99729 | 2.55810 | 355 ft | 0 kts | 174° |
| 2026-05-08 17:03 | 48.99718 | 2.55811 | 354 ft | 4 kts | 174° |
| 2026-05-08 17:03 | 48.99701 | 2.55814 | 353 ft | 0 kts | 174° |
| 2026-05-08 17:05 | 48.99699 | 2.55814 | 355 ft | 1 kts | 174° |
| 2026-05-08 17:05 | 48.99687 | 2.55816 | 358 ft | 4 kts | 174° |
| 2026-05-08 17:06 | 48.99637 | 2.55824 | 355 ft | 9 kts | 174° |
| 2026-05-08 17:06 | 48.99605 | 2.55855 | 354 ft | 8 kts | 114° |
| 2026-05-08 17:06 | 48.99604 | 2.55888 | 353 ft | 1 kts | 86° |
| 2026-05-08 17:06 | 48.99604 | 2.55894 | 353 ft | 0 kts | 86° |
| 2026-05-08 17:07 | 48.99604 | 2.55901 | 353 ft | 2 kts | 86° |
| 2026-05-08 17:07 | 48.99609 | 2.56018 | 354 ft | 33 kts | 85° |
| 2026-05-08 17:07 | 48.99640 | 2.56496 | 361 ft | 86 kts | 85° |
| 2026-05-08 17:07 | 48.99680 | 2.57243 | 352 ft | 124 kts | 86° |
| 2026-05-08 17:08 | 48.99747 | 2.58414 | 386 ft | 156 kts | 83° |
| 2026-05-08 17:08 | 48.99804 | 2.59630 | 902 ft | 146 kts | 85° |
| 2026-05-08 17:08 | 48.99847 | 2.60742 | 1456 ft | 143 kts | 85° |
| 2026-05-08 17:08 | 48.99890 | 2.61998 | 1978 ft | 132 kts | 86° |
| 2026-05-08 17:09 | 48.99914 | 2.63243 | 2359 ft | 139 kts | 88° |
| 2026-05-08 17:09 | 48.99953 | 2.64557 | 2756 ft | 150 kts | 85° |
| 2026-05-08 17:09 | 48.99963 | 2.66141 | 3487 ft | 153 kts | 96° |